Latest Weather Observations for East Sale

IDV60801

Issued at 6:05 pm EDT Saturday 25 October 2014 (issued every 30 minutes, with the page automatically refreshed every 10 minutes)

About weather observations | Map of weather stations | Latest weather observations for VIC | Other Formats
Station Details ID: 085072 Name: EAST SALE AIRPORT Lat: -38.12 Lon: 147.13 Height: 4.6 m
Data from the previous 72 hours. | See also: Recent months at East Sale
Date/Time
EDT
Temp
°C
App
Temp
°C
Dew
Point
Rel
Hum
%
Delta-T
°C
Wind Press
QNH
hPa
Press
MSL
hPa
Rain
since 9 am
mm
Dir
 
Spd
km/h
Gust
km/h
Spd
kts
Gust
kts
25/06:00pm 15.1 12.4 10.3 73 2.5 SE 15 19 8 10 1015.8 1015.8 0.0
25/05:30pm 15.1 11.7 10.5 74 2.4 ESE 19 22 10 12 1015.7 - 0.0
25/05:00pm 15.4 12.4 10.5 72 2.6 SE 17 22 9 12 1015.6 - 0.0
25/04:30pm 15.7 12.3 11.2 74 2.4 ESE 20 26 11 14 1015.3 - 0.0
25/04:00pm 16.4 13.0 11.2 71 2.8 SE 20 28 11 15 1015.5 - 0.0
25/03:30pm 16.8 13.7 11.7 72 2.8 SE 19 24 10 13 - - 0.0
25/03:00pm 18.2 15.4 12.6 70 3.1 ESE 19 24 10 13 1015.3 1015.3 0.0
25/02:30pm 18.2 15.4 12.6 70 3.1 E 19 22 10 12 1015.5 - 0.0
25/02:00pm 18.8 17.7 12.1 65 3.7 NE 9 13 5 7 1015.8 - 0.0
25/01:30pm 17.8 16.8 12.2 70 3.1 ENE 9 15 5 8 1016.0 - 0.0
25/01:00pm 18.2 17.4 11.8 66 3.5 N 7 11 4 6 1016.1 - 0.0
25/12:30pm 17.9 16.7 11.7 67 3.4 N 9 13 5 7 1016.2 - 0.0
25/12:00pm 17.6 16.9 12.0 69 3.1 NNE 7 9 4 5 1016.7 1016.7 0.0
25/11:30am 17.5 16.9 11.6 68 3.2 ESE 6 9 3 5 1017.2 - 0.0
25/11:00am 16.8 16.9 11.4 70 2.9 WSW 2 7 1 4 1017.6 - 0.0
25/10:30am 16.4 15.1 11.4 72 2.7 W 9 15 5 8 1017.8 - 0.0
25/10:00am 16.0 14.7 11.1 72 2.6 WSW 9 13 5 7 1017.9 - 0.0
25/09:30am 15.7 14.3 11.0 73 2.5 W 9 11 5 6 1017.9 - 0.0
25/09:00am 15.5 14.7 11.6 77 2.1 SW 7 11 4 6 1017.6 1017.6 0.0
25/08:30am 15.0 13.7 11.1 77 2.1 WSW 9 13 5 7 1017.7 - 0.0
25/08:00am 14.7 13.5 11.7 82 1.6 W 9 15 5 8 1017.4 - 0.0
25/07:30am 14.4 13.2 11.6 83 1.5 W 9 13 5 7 1017.3 - 0.0
25/07:00am 14.2 13.4 11.6 84 1.4 WSW 7 9 4 5 1017.1 - 0.0
25/06:30am 14.0 12.4 11.6 85 1.3 WSW 11 15 6 8 1016.8 - 0.0
25/06:00am 14.0 12.0 11.4 84 1.4 SW 13 15 7 8 1016.4 1016.4 0.0
25/05:30am 14.2 11.6 10.8 80 1.8 WSW 15 19 8 10 1016.0 - 0.0
25/05:00am 14.2 11.4 11.2 82 1.6 WSW 17 24 9 13 1015.6 - 0.0
25/04:30am 15.0 12.1 11.1 77 2.1 WSW 17 26 9 14 1015.4 - 0.0
25/04:13am 14.9 11.6 11.7 81 1.7 WSW 20 30 11 16 1015.5 - 0.0
25/04:00am 15.0 12.0 11.9 82 1.7 WSW 19 26 10 14 1015.2 - 0.0
25/03:30am 15.0 11.9 11.7 80 1.8 WSW 19 24 10 13 1015.2 - 0.0
25/03:14am 14.9 11.3 11.7 81 1.7 WSW 22 33 12 18 1015.2 - 0.0
25/03:00am 14.7 11.4 11.7 82 1.6 WSW 20 30 11 16 1015.0 1015.0 0.0
25/02:33am 14.6 9.8 11.8 83 1.5 WSW 28 35 15 19 1014.7 - 0.0
25/02:30am 14.6 9.8 11.8 83 1.5 WSW 28 37 15 20 1014.7 - 0.0
25/02:00am 14.7 10.8 12.1 84 1.4 W 24 37 13 20 1014.7 - 0.0
25/01:35am 14.9 10.7 12.3 84 1.4 W 26 33 14 18 1014.8 - 0.0
25/01:30am 14.9 11.1 12.3 84 1.4 W 24 33 13 18 1014.7 - 0.0
25/01:00am 15.0 11.5 12.2 83 1.5 W 22 35 12 19 1014.7 - 0.0
25/12:30am 15.7 12.3 12.6 82 1.7 W 22 32 12 17 1014.5 - 0.0
25/12:00am 15.3 13.5 13.3 88 1.1 WNW 15 19 8 10 1014.6 1014.6 0.0
 
Date/Time
EDT
Temp
°C
App
Temp
°C
Dew
Point
Rel
Hum
%
Delta-T
°C
Wind Press
QNH
hPa
Press
MSL
hPa
Rain
since 9 am
mm
Dir
 
Spd
km/h
Gust
km/h
Spd
kts
Gust
kts
24/11:30pm 15.9 15.5 14.0 88 1.1 NW 9 11 5 6 1014.5 - 0.0
24/11:00pm 16.8 16.9 14.0 83 1.6 WNW 6 7 3 4 1014.1 - 0.0
24/10:30pm 17.5 17.3 13.6 78 2.2 SSW 7 9 4 5 1013.6 - 0.0
24/10:00pm 17.9 17.1 13.9 77 2.3 S 11 19 6 10 1013.3 - 0.0
24/09:30pm 18.7 18.0 14.2 75 2.6 SE 11 15 6 8 1013.1 - 0.0
24/09:00pm 19.2 18.4 15.1 77 2.4 SSE 13 17 7 9 1012.5 1012.5 0.0
24/08:30pm 19.9 18.9 15.7 77 2.5 SSE 15 19 8 10 1011.9 - 0.0
24/08:00pm 20.8 20.4 16.1 74 2.8 SSE 13 17 7 9 1011.4 - 0.0
24/07:30pm 20.4 20.5 17.5 83 1.8 ESE 13 13 7 7 1010.8 - 0.0
24/07:00pm 22.5 22.8 17.1 71 3.3 E 11 13 6 7 1010.3 - 0.0
24/06:30pm 23.7 23.1 17.6 68 3.8 E 17 19 9 10 1009.8 - 0.0
24/06:00pm 24.4 23.1 16.9 63 4.6 E 19 22 10 12 1009.7 1009.7 0.0
24/05:30pm 23.9 22.9 17.5 67 4.0 E 19 22 10 12 1009.6 - 0.0
24/05:00pm 24.7 24.4 18.2 67 4.1 E 17 19 9 10 1009.9 - 0.0
24/04:30pm 25.3 25.0 18.3 65 4.4 WNW 17 19 9 10 1009.8 - 0.0
24/04:00pm 28.0 28.6 16.8 50 7.0 N 9 15 5 8 1009.7 - 0.0
24/03:30pm 26.4 27.6 18.2 60 5.2 ENE 9 15 5 8 1009.6 - 0.0
24/03:00pm 25.3 26.6 18.5 66 4.3 ESE 9 15 5 8 1010.0 1010.0 0.0
24/02:30pm 24.8 26.5 18.5 68 4.0 SSW 7 11 4 6 1010.2 - 0.0
24/02:00pm 24.5 25.4 16.5 61 4.9 S 7 13 4 7 1010.2 - 0.0
24/01:30pm 24.0 24.3 16.1 61 4.8 SE 9 15 5 8 1010.3 - 0.0
24/01:00pm 22.8 22.9 15.6 64 4.3 S 9 13 5 7 1010.6 - 0.0
24/12:30pm 21.9 22.3 16.3 70 3.4 SSE 9 15 5 8 1010.9 - 0.0
24/12:00pm 20.4 20.3 15.9 75 2.7 SSE 11 15 6 8 1011.1 1011.1 0.0
24/11:30am 19.5 20.1 15.8 79 2.2 SE 7 13 4 7 1011.5 - 0.0
24/11:00am 18.8 19.2 15.4 80 2.0 SE 7 11 4 6 1011.8 - 0.0
24/10:30am 18.2 18.6 14.8 80 2.0 ESE 6 11 3 6 1012.4 - 0.0
24/10:00am 17.1 17.3 14.7 86 1.4 N 7 11 4 6 1012.8 - 0.0
24/09:30am 16.4 16.6 14.7 90 1.0 NNE 7 11 4 6 1013.0 - 0.0
24/09:00am 16.1 16.6 14.9 93 0.7 ENE 6 11 3 6 1013.4 1013.4 0.0
24/08:30am 16.1 15.7 15.1 94 0.6 E 11 13 6 7 1013.8 - 0.0
24/08:23am 16.0 15.6 15.1 94 0.5 ENE 11 15 6 8 1013.8 - 0.0
24/08:00am 15.7 15.6 15.0 96 0.4 E 9 13 5 7 1014.0 - 0.0
24/07:53am 15.5 15.4 15.0 97 0.3 ENE 9 13 5 7 1014.2 - 0.0
24/07:29am 15.4 14.9 14.9 97 0.3 ENE 11 13 6 7 1014.3 - 0.0
24/07:14am 15.4 14.5 14.9 97 0.3 E 13 15 7 8 1014.4 - 0.0
24/07:00am 15.3 14.4 14.8 97 0.3 E 13 17 7 9 1014.4 - 0.0
24/06:55am 15.2 13.9 14.7 97 0.3 E 15 19 8 10 1014.4 - 0.0
24/06:42am 15.2 13.5 14.7 97 0.3 E 17 20 9 11 1014.5 - 0.0
24/06:30am 15.2 13.9 14.7 97 0.3 E 15 17 8 9 1014.7 - 0.0
24/06:00am 15.3 13.6 14.6 96 0.4 E 17 22 9 12 1014.7 1014.7 0.0
24/05:30am 15.5 13.9 15.0 97 0.3 E 17 20 9 11 1014.7 - 0.0
24/05:00am 15.6 14.3 14.9 96 0.4 E 15 20 8 11 1015.0 - 0.0
24/04:30am 15.9 15.5 15.2 96 0.4 ENE 11 15 6 8 1015.2 - 0.0
24/04:14am 16.0 15.2 15.1 94 0.5 ENE 13 17 7 9 1015.3 - 0.0
24/04:00am 16.0 14.9 15.3 96 0.4 ENE 15 19 8 10 1015.6 - 0.0
24/03:50am 16.1 14.6 15.2 94 0.5 ENE 17 20 9 11 1015.5 - 0.0
24/03:30am 16.0 14.1 15.3 96 0.4 ENE 19 22 10 12 1015.9 - 0.0
24/03:10am 16.0 14.4 15.1 94 0.5 ENE 17 22 9 12 1016.2 - 0.0
24/03:00am 15.9 14.8 15.4 97 0.3 ENE 15 20 8 11 1016.4 1016.4 0.0
24/02:30am 15.8 13.7 15.3 97 0.3 E 20 26 11 14 1016.8 - 0.0
24/02:00am 15.9 13.1 15.4 97 0.3 E 24 30 13 16 1017.5 - 0.0
24/01:30am 15.8 13.0 15.3 97 0.3 E 24 32 13 17 1018.0 - 0.0
24/01:00am 15.8 12.2 15.3 97 0.3 E 28 33 15 18 1018.4 - 0.0
24/12:30am 15.7 12.5 15.2 97 0.3 E 26 33 14 18 1018.8 - 0.0
24/12:00am 15.8 13.6 14.9 94 0.5 E 20 30 11 16 1019.3 1019.3 0.0
 
Date/Time
EDT
Temp
°C
App
Temp
°C
Dew
Point
Rel
Hum
%
Delta-T
°C
Wind Press
QNH
hPa
Press
MSL
hPa
Rain
since 9 am
mm
Dir
 
Spd
km/h
Gust
km/h
Spd
kts
Gust
kts
23/11:30pm 15.9 12.2 14.9 94 0.6 E 28 35 15 19 1019.5 - 0.0
23/11:00pm 15.9 12.9 14.7 93 0.7 E 24 32 13 17 1019.7 - 0.0
23/10:30pm 15.8 13.1 14.6 93 0.7 ESE 22 28 12 15 1019.9 - 0.0
23/10:00pm 15.7 13.0 14.5 93 0.7 ESE 22 30 12 16 1020.3 - 0.0
23/09:46pm 15.6 13.2 14.5 93 0.6 E 20 28 11 15 1020.4 - 0.0
23/09:30pm 15.6 12.8 14.4 93 0.7 E 22 30 12 16 1020.6 - 0.0
23/09:00pm 15.5 11.9 14.3 92 0.7 E 26 35 14 19 1020.7 1020.7 0.0
23/08:30pm 15.5 11.9 14.3 92 0.7 ESE 26 33 14 18 1020.7 - 0.0
23/08:00pm 15.6 11.9 13.8 89 1.0 E 26 37 14 20 1020.5 - 0.0
23/07:30pm 15.6 11.4 13.6 88 1.1 E 28 35 15 19 1020.5 - 0.0
23/07:00pm 15.8 11.5 13.3 85 1.4 E 28 37 15 20 1020.4 - 0.0
23/06:30pm 15.8 10.8 13.3 85 1.4 E 32 39 17 21 1020.2 - 0.0
23/06:00pm 15.9 10.8 13.0 83 1.6 ESE 32 39 17 21 1020.2 1020.2 0.0
23/05:30pm 16.0 11.3 13.1 83 1.6 ESE 30 39 16 21 1020.3 - 0.0
23/05:00pm 16.1 11.4 13.2 83 1.6 E 30 35 16 19 1020.1 - 0.0
23/04:30pm 15.9 10.8 13.0 83 1.6 ESE 32 41 17 22 1020.2 - 0.0
23/04:00pm 16.1 11.0 13.2 83 1.6 ESE 32 39 17 21 1020.1 - 0.0
23/03:30pm 16.4 11.3 13.2 81 1.8 ESE 32 41 17 22 1020.3 - 0.0
23/03:00pm 16.4 11.8 13.4 82 1.7 ESE 30 41 16 22 1020.6 1020.6 0.0
23/02:27pm 16.4 12.2 13.4 82 1.7 ESE 28 35 15 19 1020.7 - 0.0
23/02:07pm 16.2 11.7 13.9 86 1.3 ESE 30 37 16 20 1021.0 - 0.0
23/02:00pm 16.1 11.9 13.6 85 1.4 ESE 28 33 15 18 1021.0 - 0.0
23/01:42pm 16.4 12.6 13.7 84 1.5 ESE 26 33 14 18 1021.1 - 0.0
23/01:28pm 16.3 12.2 13.8 85 1.4 ESE 28 33 15 18 1021.1 - 0.0
23/01:15pm 16.2 12.1 13.7 85 1.4 ESE 28 35 15 19 1021.2 - 0.0
23/01:00pm 16.1 12.4 13.8 86 1.3 ESE 26 33 14 18 1021.2 - 0.0
23/12:30pm 16.5 12.5 14.0 85 1.4 ESE 28 33 15 18 1021.2 - 0.0
23/12:25pm 16.5 12.5 14.0 85 1.4 ESE 28 33 15 18 1021.1 - 0.0
23/12:00pm 16.4 13.1 14.1 86 1.3 ESE 24 30 13 16 1021.5 1021.5 0.0
23/11:30am 15.9 13.4 14.1 89 1.0 ESE 20 26 11 14 1021.6 - 0.0
23/11:00am 16.0 13.9 14.8 93 0.7 SE 19 26 10 14 1021.7 - 0.0
23/10:49am 16.0 14.3 14.8 93 0.7 SE 17 20 9 11 1021.7 - 0.0
23/10:46am 16.1 14.3 14.5 90 0.9 SE 17 24 9 13 1021.7 - 0.0
23/10:30am 16.2 15.3 14.8 91 0.8 ESE 13 17 7 9 1021.6 - 0.0
23/10:14am 16.4 15.4 14.5 88 1.1 SSE 13 15 7 8 1021.6 - 0.0
23/10:00am 16.3 15.2 14.4 88 1.1 SE 13 17 7 9 1021.3 - 0.0
23/09:30am 16.4 15.2 13.9 85 1.4 SSE 13 17 7 9 1021.1 - 0.0
23/09:00am 16.3 15.0 13.8 85 1.4 S 13 17 7 9 1021.0 1021.0 0.0
23/08:30am 16.2 14.1 13.5 84 1.5 SSW 17 22 9 12 1020.7 - 0.0
23/08:15am 16.2 14.0 13.2 82 1.7 SSW 17 24 9 13 1020.6 - 0.0
23/08:00am 16.1 13.4 12.9 81 1.8 SSW 19 26 10 14 1020.4 - 0.0
23/07:30am 15.8 13.8 12.7 82 1.7 SW 15 20 8 11 1020.1 - 0.0
23/07:00am 15.5 13.1 12.6 83 1.6 SW 17 24 9 13 1019.4 - 0.0
23/06:30am 15.3 12.9 12.8 85 1.4 SSW 17 24 9 13 1019.1 - 0.0
23/06:00am 15.9 12.8 12.2 78 2.0 SSW 20 28 11 15 1018.1 1018.1 0.0
23/05:30am 16.9 12.5 13.0 78 2.2 SSW 28 41 15 22 1017.5 - 0.0
23/05:00am 17.5 14.3 13.2 76 2.4 WSW 22 32 12 17 1016.7 - 0.0
23/04:30am 16.8 14.1 13.6 81 1.8 NW 20 20 11 11 1016.1 - 0.0
23/04:17am 17.4 13.3 13.7 79 2.1 W 28 32 15 17 1016.2 - 0.0
23/04:00am 18.0 17.8 13.6 75 2.5 NW 7 13 4 7 1015.0 - 0.0
23/03:30am 18.1 16.9 14.1 77 2.3 N 13 20 7 11 1015.7 - 0.0
23/03:00am 19.3 16.7 13.7 70 3.2 SSE 20 28 11 15 1016.7 1016.7 0.0
23/02:30am 19.2 17.2 13.8 71 3.1 WSW 17 22 9 12 1017.2 - 0.0
23/02:00am 18.6 15.5 12.3 67 3.5 W 20 30 11 16 1017.5 - 0.0
23/01:30am 17.4 16.7 13.1 76 2.4 W 9 13 5 7 1016.8 - 0.0
23/01:00am 17.7 17.5 13.6 77 2.3 SSW 7 13 4 7 1016.3 - 0.0
23/12:30am 18.2 17.4 13.0 71 2.9 S 9 13 5 7 1016.4 - 0.0
23/12:00am 18.1 18.1 14.3 78 2.2 S 7 11 4 6 1016.1 1016.1 0.0
 
Date/Time
EDT
Temp
°C
App
Temp
°C
Dew
Point
Rel
Hum
%
Delta-T
°C
Wind Press
QNH
hPa
Press
MSL
hPa
Rain
since 9 am
mm
Dir
 
Spd
km/h
Gust
km/h
Spd
kts
Gust
kts
22/11:30pm 18.1 18.6 15.0 82 1.8 SE 6 7 3 4 1015.9 - 0.0
22/11:00pm 18.6 18.7 15.5 82 1.8 SSW 9 15 5 8 1016.3 - 0.0
22/10:30pm 17.3 18.7 14.5 83 1.6 CALM 0 6 0 3 1016.1 - 0.0
22/10:00pm 18.0 17.3 14.3 79 2.1 NE 11 15 6 8 1016.0 - 0.0
22/09:30pm 18.4 17.5 14.8 79 2.1 ESE 13 13 7 7 1016.3 - 0.0
22/09:00pm 18.1 17.1 14.6 80 2.0 ESE 13 13 7 7 1016.4 1016.4 0.0
22/08:30pm 17.9 17.6 14.4 80 2.0 ESE 9 11 5 6 1016.1 - 0.0
22/08:00pm 17.2 15.6 12.7 75 2.5 E 13 15 7 8 1015.8 - 0.0
22/07:30pm 19.0 17.6 14.5 75 2.6 E 15 20 8 11 1015.8 - 0.0
22/07:00pm 20.5 19.3 15.1 71 3.2 E 15 19 8 10 1015.7 - 0.0
22/06:30pm 22.5 20.3 14.9 62 4.5 E 20 24 11 13 1015.6 - 0.0

Other Formats:

Comma delimited format used in spreadsheet applications
http://www.bom.gov.au/fwo/IDV60801/IDV60801.94907.axf

JavaScript Object Notation format (JSON) in row-major order
http://www.bom.gov.au/fwo/IDV60801/IDV60801.94907.json